Pagrindinis puslapis
METAR-TAF:

METAR-TAF

Oro uostai :

Qaisumah, Saudo Arabija

platuma: 28-19N, ilguma: 046-07E, Aukštis: 358 m

Dabartinis oras

Ataskaita buvo paskelbta 1 valandą ir 16 minutes, ne 13:00 UTC
Vėjas 6 kt iš Šiaurės
Temperatūra 42°C
Drėgmė 25%
Slėgis 1008 hPa
Matomumas 10 km arba daugiau
nėra debesų žemiau 1500 m ir nėra kamuolinių lietaus debesų

METAR: OEPA 191300Z 36006KT CAVOK 42/18 Q1008 NOSIG

Laikas: 17:16 (14:16 UTC)

Prognozė

Ataskaita buvo paskelbta 5 valandos ir 16 minutes, ne 09:00 UTC
Prognozė galioja nuo 19 metu 12 UTC su 20 metu 18 UTC
Vėjas 10 kt iš Šiaurės
Matomumas 10 km arba daugiau
nėra debesų žemiau 1500 m ir nėra kamuolinių lietaus debesų
Tapsmas
nuo 20 metu 06 UTC su 20 metu 08 UTC
Vėjas 12 kt iš Šiaurės Vakarų

TAF: OEPA 190900Z 1912/2018 35010KT CAVOK BECMG 2006/2008 32012KT

Orai ataskaitas ir orų prognozės (METAR, TAF).

turimą stotys yra geltonos ir raudonos taškus žemėlapyje.

Perkelti pele per norėdami pamatyti stoties vardą.

Tada spustelėkite, norėdami matyti oro stebėjimo ir prognozės.

Norėdami pakeisti žemėlapį: spustelėkite ant žalios mygtukų su juodo kryžiaus žemyn,; žalią mygtuką su brūkšneliu, jei norite nutolinti; arba žalių rodyklių gretimoms žemėlapius.


METAR-TAF: